sensor_id;sensor_type;location;lat;lon;timestamp;P1;durP1;ratioP1;P2;durP2;ratioP2
13951;SDS011;39535;52.192;9.886;2023-05-10T00:01:17;2.77;;;2.30;;
13951;SDS011;39535;52.192;9.886;2023-05-10T00:03:43;3.77;;;2.47;;
13951;SDS011;39535;52.192;9.886;2023-05-10T00:06:10;2.43;;;2.23;;
13951;SDS011;39535;52.192;9.886;2023-05-10T00:08:37;4.53;;;2.50;;
13951;SDS011;39535;52.192;9.886;2023-05-10T00:11:03;2.80;;;2.60;;
13951;SDS011;39535;52.192;9.886;2023-05-10T00:13:31;3.00;;;2.43;;
13951;SDS011;39535;52.192;9.886;2023-05-10T00:15:58;2.10;;;2.00;;
13951;SDS011;39535;52.192;9.886;2023-05-10T00:18:24;2.90;;;2.50;;
13951;SDS011;39535;52.192;9.886;2023-05-10T00:20:50;3.83;;;2.23;;
13951;SDS011;39535;52.192;9.886;2023-05-10T00:23:17;2.43;;;2.30;;
13951;SDS011;39535;52.192;9.886;2023-05-10T00:25:43;2.80;;;2.50;;
13951;SDS011;39535;52.192;9.886;2023-05-10T00:28:09;3.00;;;2.50;;
13951;SDS011;39535;52.192;9.886;2023-05-10T00:30:37;2.33;;;2.23;;
13951;SDS011;39535;52.192;9.886;2023-05-10T00:33:03;2.47;;;2.27;;
13951;SDS011;39535;52.192;9.886;2023-05-10T00:35:30;2.67;;;2.47;;
13951;SDS011;39535;52.192;9.886;2023-05-10T00:37:56;4.70;;;2.33;;
13951;SDS011;39535;52.192;9.886;2023-05-10T00:40:22;3.13;;;2.80;;
13951;SDS011;39535;52.192;9.886;2023-05-10T00:42:49;4.63;;;2.40;;
13951;SDS011;39535;52.192;9.886;2023-05-10T00:45:15;2.77;;;2.23;;
13951;SDS011;39535;52.192;9.886;2023-05-10T00:47:43;2.77;;;2.57;;
13951;SDS011;39535;52.192;9.886;2023-05-10T00:50:10;4.60;;;2.50;;
13951;SDS011;39535;52.192;9.886;2023-05-10T00:52:36;4.07;;;3.43;;
13951;SDS011;39535;52.192;9.886;2023-05-10T00:55:02;3.37;;;2.63;;
13951;SDS011;39535;52.192;9.886;2023-05-10T00:57:30;4.53;;;2.77;;
13951;SDS011;39535;52.192;9.886;2023-05-10T00:59:56;3.10;;;2.80;;
13951;SDS011;39535;52.192;9.886;2023-05-10T01:02:23;5.47;;;3.00;;
13951;SDS011;39535;52.192;9.886;2023-05-10T01:04:51;3.17;;;2.93;;
13951;SDS011;39535;52.192;9.886;2023-05-10T01:07:19;3.33;;;3.10;;
13951;SDS011;39535;52.192;9.886;2023-05-10T01:09:45;4.43;;;3.00;;
13951;SDS011;39535;52.192;9.886;2023-05-10T01:12:12;3.97;;;3.67;;
13951;SDS011;39535;52.192;9.886;2023-05-10T01:14:38;3.50;;;3.20;;
13951;SDS011;39535;52.192;9.886;2023-05-10T01:17:05;3.33;;;2.80;;
13951;SDS011;39535;52.192;9.886;2023-05-10T01:19:34;2.67;;;2.47;;
13951;SDS011;39535;52.192;9.886;2023-05-10T01:22:05;3.17;;;2.97;;
13951;SDS011;39535;52.192;9.886;2023-05-10T01:25:03;3.40;;;3.10;;
13951;SDS011;39535;52.192;9.886;2023-05-10T01:27:55;3.20;;;2.93;;
13951;SDS011;39535;52.192;9.886;2023-05-10T01:33:51;3.77;;;2.93;;
13951;SDS011;39535;52.192;9.886;2023-05-10T01:36:23;3.17;;;2.90;;
13951;SDS011;39535;52.192;9.886;2023-05-10T01:38:53;4.93;;;3.00;;
13951;SDS011;39535;52.192;9.886;2023-05-10T01:41:27;3.20;;;3.00;;
13951;SDS011;39535;52.192;9.886;2023-05-10T01:44:01;3.17;;;2.67;;
13951;SDS011;39535;52.192;9.886;2023-05-10T01:46:32;3.10;;;2.90;;
13951;SDS011;39535;52.192;9.886;2023-05-10T01:49:04;3.60;;;3.37;;
13951;SDS011;39535;52.192;9.886;2023-05-10T01:51:36;2.87;;;2.67;;
13951;SDS011;39535;52.192;9.886;2023-05-10T01:54:07;3.40;;;3.10;;
13951;SDS011;39535;52.192;9.886;2023-05-10T01:56:35;4.03;;;3.17;;
13951;SDS011;39535;52.192;9.886;2023-05-10T01:59:06;3.30;;;3.00;;
13951;SDS011;39535;52.192;9.886;2023-05-10T02:01:37;3.50;;;3.20;;
13951;SDS011;39535;52.192;9.886;2023-05-10T02:04:06;3.70;;;3.40;;
13951;SDS011;39535;52.192;9.886;2023-05-10T02:06:34;4.30;;;2.97;;
13951;SDS011;39535;52.192;9.886;2023-05-10T02:09:03;3.47;;;3.23;;
13951;SDS011;39535;52.192;9.886;2023-05-10T02:11:31;3.77;;;3.10;;
13951;SDS011;39535;52.192;9.886;2023-05-10T02:13:59;3.40;;;3.03;;
13951;SDS011;39535;52.192;9.886;2023-05-10T02:16:27;4.03;;;3.30;;
13951;SDS011;39535;52.192;9.886;2023-05-10T02:18:55;3.50;;;3.30;;
13951;SDS011;39535;52.192;9.886;2023-05-10T02:21:26;4.23;;;3.60;;
13951;SDS011;39535;52.192;9.886;2023-05-10T02:23:53;3.47;;;3.17;;
13951;SDS011;39535;52.192;9.886;2023-05-10T02:26:21;2.97;;;2.73;;
13951;SDS011;39535;52.192;9.886;2023-05-10T02:28:50;3.40;;;3.10;;
13951;SDS011;39535;52.192;9.886;2023-05-10T02:31:17;3.23;;;2.83;;
13951;SDS011;39535;52.192;9.886;2023-05-10T02:33:45;3.37;;;3.17;;
13951;SDS011;39535;52.192;9.886;2023-05-10T02:36:13;3.53;;;3.33;;
13951;SDS011;39535;52.192;9.886;2023-05-10T02:38:43;3.20;;;3.00;;
13951;SDS011;39535;52.192;9.886;2023-05-10T02:41:11;3.20;;;2.90;;
13951;SDS011;39535;52.192;9.886;2023-05-10T02:43:39;3.03;;;2.83;;
13951;SDS011;39535;52.192;9.886;2023-05-10T02:46:06;3.70;;;2.93;;
13951;SDS011;39535;52.192;9.886;2023-05-10T02:48:33;3.10;;;2.77;;
13951;SDS011;39535;52.192;9.886;2023-05-10T02:51:00;2.77;;;2.57;;
13951;SDS011;39535;52.192;9.886;2023-05-10T02:53:31;3.90;;;3.10;;
13951;SDS011;39535;52.192;9.886;2023-05-10T02:56:01;3.33;;;3.03;;
13951;SDS011;39535;52.192;9.886;2023-05-10T02:58:32;3.00;;;2.77;;
13951;SDS011;39535;52.192;9.886;2023-05-10T03:00:59;3.00;;;2.80;;
13951;SDS011;39535;52.192;9.886;2023-05-10T03:03:26;3.57;;;3.23;;
13951;SDS011;39535;52.192;9.886;2023-05-10T03:05:52;2.90;;;2.70;;
13951;SDS011;39535;52.192;9.886;2023-05-10T03:08:20;2.90;;;2.70;;
13951;SDS011;39535;52.192;9.886;2023-05-10T03:10:47;3.70;;;3.37;;
13951;SDS011;39535;52.192;9.886;2023-05-10T03:13:24;3.97;;;3.40;;
13951;SDS011;39535;52.192;9.886;2023-05-10T03:16:02;3.40;;;3.10;;
13951;SDS011;39535;52.192;9.886;2023-05-10T03:18:36;3.20;;;2.97;;
13951;SDS011;39535;52.192;9.886;2023-05-10T03:21:08;3.50;;;3.30;;
13951;SDS011;39535;52.192;9.886;2023-05-10T03:23:39;3.60;;;3.30;;
13951;SDS011;39535;52.192;9.886;2023-05-10T03:26:09;3.43;;;3.20;;
13951;SDS011;39535;52.192;9.886;2023-05-10T03:28:37;3.93;;;3.63;;
13951;SDS011;39535;52.192;9.886;2023-05-10T03:31:05;3.97;;;3.60;;
13951;SDS011;39535;52.192;9.886;2023-05-10T03:33:32;3.70;;;3.40;;
13951;SDS011;39535;52.192;9.886;2023-05-10T03:35:58;4.33;;;3.53;;
13951;SDS011;39535;52.192;9.886;2023-05-10T03:38:25;4.20;;;3.80;;
13951;SDS011;39535;52.192;9.886;2023-05-10T03:40:51;4.27;;;3.97;;
13951;SDS011;39535;52.192;9.886;2023-05-10T03:43:17;4.63;;;4.20;;
13951;SDS011;39535;52.192;9.886;2023-05-10T03:45:45;6.00;;;5.50;;
13951;SDS011;39535;52.192;9.886;2023-05-10T03:48:11;5.40;;;5.00;;
13951;SDS011;39535;52.192;9.886;2023-05-10T03:50:41;4.37;;;4.03;;
13951;SDS011;39535;52.192;9.886;2023-05-10T03:53:07;5.07;;;4.67;;
13951;SDS011;39535;52.192;9.886;2023-05-10T03:55:34;4.80;;;4.20;;
13951;SDS011;39535;52.192;9.886;2023-05-10T03:58:01;4.27;;;4.07;;
13951;SDS011;39535;52.192;9.886;2023-05-10T04:00:27;3.73;;;3.43;;
13951;SDS011;39535;52.192;9.886;2023-05-10T04:02:55;4.53;;;4.23;;
13951;SDS011;39535;52.192;9.886;2023-05-10T04:05:21;5.00;;;4.60;;
13951;SDS011;39535;52.192;9.886;2023-05-10T04:07:48;4.63;;;4.23;;
13951;SDS011;39535;52.192;9.886;2023-05-10T04:10:16;4.37;;;4.07;;
13951;SDS011;39535;52.192;9.886;2023-05-10T04:12:42;4.63;;;4.27;;
13951;SDS011;39535;52.192;9.886;2023-05-10T04:15:09;4.90;;;4.47;;
13951;SDS011;39535;52.192;9.886;2023-05-10T04:17:35;5.03;;;4.63;;
13951;SDS011;39535;52.192;9.886;2023-05-10T04:20:04;7.37;;;4.43;;
13951;SDS011;39535;52.192;9.886;2023-05-10T04:22:32;4.47;;;4.07;;
13951;SDS011;39535;52.192;9.886;2023-05-10T04:24:58;4.60;;;4.30;;
13951;SDS011;39535;52.192;9.886;2023-05-10T04:27:24;4.67;;;4.30;;
13951;SDS011;39535;52.192;9.886;2023-05-10T04:29:51;5.23;;;4.57;;
13951;SDS011;39535;52.192;9.886;2023-05-10T04:32:17;4.70;;;4.40;;
13951;SDS011;39535;52.192;9.886;2023-05-10T04:34:45;4.83;;;4.43;;
13951;SDS011;39535;52.192;9.886;2023-05-10T04:37:12;5.23;;;4.80;;
13951;SDS011;39535;52.192;9.886;2023-05-10T04:39:39;4.50;;;4.23;;
13951;SDS011;39535;52.192;9.886;2023-05-10T04:42:05;4.37;;;4.07;;
13951;SDS011;39535;52.192;9.886;2023-05-10T04:44:32;5.00;;;4.70;;
13951;SDS011;39535;52.192;9.886;2023-05-10T04:46:58;4.80;;;4.40;;
13951;SDS011;39535;52.192;9.886;2023-05-10T04:49:24;5.47;;;5.07;;
13951;SDS011;39535;52.192;9.886;2023-05-10T04:51:51;4.80;;;4.50;;
13951;SDS011;39535;52.192;9.886;2023-05-10T04:54:18;5.53;;;5.13;;
13951;SDS011;39535;52.192;9.886;2023-05-10T04:56:45;4.90;;;4.50;;
13951;SDS011;39535;52.192;9.886;2023-05-10T04:59:11;5.00;;;4.70;;
13951;SDS011;39535;52.192;9.886;2023-05-10T05:01:38;5.40;;;5.00;;
13951;SDS011;39535;52.192;9.886;2023-05-10T05:04:04;5.10;;;4.80;;
13951;SDS011;39535;52.192;9.886;2023-05-10T05:06:30;4.83;;;4.43;;
13951;SDS011;39535;52.192;9.886;2023-05-10T05:08:57;5.93;;;4.70;;
13951;SDS011;39535;52.192;9.886;2023-05-10T05:11:24;5.67;;;5.17;;
13951;SDS011;39535;52.192;9.886;2023-05-10T05:13:51;4.80;;;4.23;;
13951;SDS011;39535;52.192;9.886;2023-05-10T05:16:17;6.37;;;5.77;;
13951;SDS011;39535;52.192;9.886;2023-05-10T05:18:44;4.77;;;4.37;;
13951;SDS011;39535;52.192;9.886;2023-05-10T05:21:13;4.93;;;4.53;;
13951;SDS011;39535;52.192;9.886;2023-05-10T05:23:41;4.87;;;4.47;;
13951;SDS011;39535;52.192;9.886;2023-05-10T05:26:07;4.97;;;4.40;;
13951;SDS011;39535;52.192;9.886;2023-05-10T05:28:35;4.93;;;4.43;;
13951;SDS011;39535;52.192;9.886;2023-05-10T05:31:02;5.33;;;4.67;;
13951;SDS011;39535;52.192;9.886;2023-05-10T05:33:28;5.27;;;4.87;;
13951;SDS011;39535;52.192;9.886;2023-05-10T05:35:54;5.00;;;4.60;;
13951;SDS011;39535;52.192;9.886;2023-05-10T05:38:21;5.27;;;4.77;;
13951;SDS011;39535;52.192;9.886;2023-05-10T05:40:48;5.63;;;5.23;;
13951;SDS011;39535;52.192;9.886;2023-05-10T05:43:14;5.43;;;5.03;;
13951;SDS011;39535;52.192;9.886;2023-05-10T05:45:42;5.30;;;4.90;;
13951;SDS011;39535;52.192;9.886;2023-05-10T05:48:08;5.57;;;5.00;;
13951;SDS011;39535;52.192;9.886;2023-05-10T05:50:35;5.17;;;4.87;;
13951;SDS011;39535;52.192;9.886;2023-05-10T05:53:01;5.40;;;5.00;;
13951;SDS011;39535;52.192;9.886;2023-05-10T05:55:28;5.30;;;5.00;;
13951;SDS011;39535;52.192;9.886;2023-05-10T05:57:56;5.47;;;5.00;;
13951;SDS011;39535;52.192;9.886;2023-05-10T06:00:22;5.37;;;4.97;;
13951;SDS011;39535;52.192;9.886;2023-05-10T06:02:50;5.90;;;5.40;;
13951;SDS011;39535;52.192;9.886;2023-05-10T06:05:17;5.37;;;4.93;;
13951;SDS011;39535;52.192;9.886;2023-05-10T06:07:43;5.50;;;5.10;;
13951;SDS011;39535;52.192;9.886;2023-05-10T06:10:09;5.57;;;5.17;;
13951;SDS011;39535;52.192;9.886;2023-05-10T06:12:36;6.37;;;5.87;;
13951;SDS011;39535;52.192;9.886;2023-05-10T06:15:02;6.27;;;5.73;;
13951;SDS011;39535;52.192;9.886;2023-05-10T06:17:30;5.67;;;5.17;;
13951;SDS011;39535;52.192;9.886;2023-05-10T06:19:57;6.13;;;5.63;;
13951;SDS011;39535;52.192;9.886;2023-05-10T06:22:24;5.53;;;5.10;;
13951;SDS011;39535;52.192;9.886;2023-05-10T06:24:50;5.70;;;5.30;;
13951;SDS011;39535;52.192;9.886;2023-05-10T06:30:27;5.53;;;5.03;;
13951;SDS011;39535;52.192;9.886;2023-05-10T06:32:54;5.60;;;5.10;;
13951;SDS011;39535;52.192;9.886;2023-05-10T06:35:22;6.00;;;4.90;;
13951;SDS011;39535;52.192;9.886;2023-05-10T06:37:49;5.53;;;5.03;;
13951;SDS011;39535;52.192;9.886;2023-05-10T06:40:16;5.70;;;5.30;;
13951;SDS011;39535;52.192;9.886;2023-05-10T06:42:43;5.70;;;5.20;;
13951;SDS011;39535;52.192;9.886;2023-05-10T06:45:10;5.03;;;4.57;;
13951;SDS011;39535;52.192;9.886;2023-05-10T06:47:40;5.17;;;4.77;;
13951;SDS011;39535;52.192;9.886;2023-05-10T06:50:06;6.00;;;5.60;;
13951;SDS011;39535;52.192;9.886;2023-05-10T06:52:36;5.33;;;5.03;;
13951;SDS011;39535;52.192;9.886;2023-05-10T06:55:03;5.00;;;4.60;;
13951;SDS011;39535;52.192;9.886;2023-05-10T06:57:30;5.37;;;4.97;;
13951;SDS011;39535;52.192;9.886;2023-05-10T06:59:57;5.40;;;5.00;;
13951;SDS011;39535;52.192;9.886;2023-05-10T07:02:23;5.27;;;4.97;;
13951;SDS011;39535;52.192;9.886;2023-05-10T07:04:50;4.70;;;4.23;;
13951;SDS011;39535;52.192;9.886;2023-05-10T07:07:16;4.83;;;4.53;;
13951;SDS011;39535;52.192;9.886;2023-05-10T07:09:44;4.73;;;4.30;;
13951;SDS011;39535;52.192;9.886;2023-05-10T07:12:11;4.63;;;4.33;;
13951;SDS011;39535;52.192;9.886;2023-05-10T07:14:37;5.13;;;4.73;;
13951;SDS011;39535;52.192;9.886;2023-05-10T07:17:04;4.60;;;4.30;;
13951;SDS011;39535;52.192;9.886;2023-05-10T07:19:30;4.40;;;4.10;;
13951;SDS011;39535;52.192;9.886;2023-05-10T07:21:58;4.43;;;4.13;;
13951;SDS011;39535;52.192;9.886;2023-05-10T07:24:24;4.27;;;4.00;;
13951;SDS011;39535;52.192;9.886;2023-05-10T07:26:52;4.27;;;3.97;;
13951;SDS011;39535;52.192;9.886;2023-05-10T07:29:18;3.80;;;3.60;;
13951;SDS011;39535;52.192;9.886;2023-05-10T07:31:45;4.03;;;3.83;;
13951;SDS011;39535;52.192;9.886;2023-05-10T07:34:11;4.17;;;3.87;;
13951;SDS011;39535;52.192;9.886;2023-05-10T07:36:37;4.50;;;4.20;;
13951;SDS011;39535;52.192;9.886;2023-05-10T07:39:06;3.77;;;3.47;;
13951;SDS011;39535;52.192;9.886;2023-05-10T07:41:35;6.40;;;3.47;;
13951;SDS011;39535;52.192;9.886;2023-05-10T07:44:04;3.73;;;3.43;;
13951;SDS011;39535;52.192;9.886;2023-05-10T07:46:30;3.57;;;3.37;;
13951;SDS011;39535;52.192;9.886;2023-05-10T07:48:56;3.57;;;3.33;;
13951;SDS011;39535;52.192;9.886;2023-05-10T07:51:23;4.13;;;3.83;;
13951;SDS011;39535;52.192;9.886;2023-05-10T07:53:49;3.93;;;3.67;;
13951;SDS011;39535;52.192;9.886;2023-05-10T07:56:22;3.80;;;3.43;;
13951;SDS011;39535;52.192;9.886;2023-05-10T07:58:52;3.20;;;3.00;;
13951;SDS011;39535;52.192;9.886;2023-05-10T08:01:19;3.43;;;3.23;;
13951;SDS011;39535;52.192;9.886;2023-05-10T08:03:46;3.57;;;3.10;;
13951;SDS011;39535;52.192;9.886;2023-05-10T08:06:12;4.07;;;3.47;;
13951;SDS011;39535;52.192;9.886;2023-05-10T08:08:40;3.20;;;2.90;;
13951;SDS011;39535;52.192;9.886;2023-05-10T08:11:07;3.20;;;2.90;;
13951;SDS011;39535;52.192;9.886;2023-05-10T08:13:38;3.30;;;3.10;;
13951;SDS011;39535;52.192;9.886;2023-05-10T08:16:15;3.10;;;3.00;;
13951;SDS011;39535;52.192;9.886;2023-05-10T08:18:43;3.60;;;3.30;;
13951;SDS011;39535;52.192;9.886;2023-05-10T08:21:14;3.20;;;3.00;;
13951;SDS011;39535;52.192;9.886;2023-05-10T08:23:40;3.80;;;3.53;;
13951;SDS011;39535;52.192;9.886;2023-05-10T08:26:08;3.40;;;3.10;;
13951;SDS011;39535;52.192;9.886;2023-05-10T08:28:36;3.23;;;3.03;;
13951;SDS011;39535;52.192;9.886;2023-05-10T08:31:02;2.97;;;2.80;;
13951;SDS011;39535;52.192;9.886;2023-05-10T08:33:28;2.77;;;2.67;;
13951;SDS011;39535;52.192;9.886;2023-05-10T08:35:56;2.70;;;2.60;;
13951;SDS011;39535;52.192;9.886;2023-05-10T08:38:22;3.97;;;2.60;;
13951;SDS011;39535;52.192;9.886;2023-05-10T08:40:49;2.87;;;2.33;;
13951;SDS011;39535;52.192;9.886;2023-05-10T08:43:21;1.90;;;1.80;;
13951;SDS011;39535;52.192;9.886;2023-05-10T08:45:50;1.60;;;1.50;;
13951;SDS011;39535;52.192;9.886;2023-05-10T08:48:20;1.33;;;1.33;;
13951;SDS011;39535;52.192;9.886;2023-05-10T08:50:48;1.43;;;1.33;;
13951;SDS011;39535;52.192;9.886;2023-05-10T08:53:18;1.20;;;1.20;;
13951;SDS011;39535;52.192;9.886;2023-05-10T08:55:46;1.60;;;1.30;;
13951;SDS011;39535;52.192;9.886;2023-05-10T08:58:12;1.50;;;1.40;;
13951;SDS011;39535;52.192;9.886;2023-05-10T09:00:39;1.20;;;1.20;;
13951;SDS011;39535;52.192;9.886;2023-05-10T09:03:06;1.40;;;1.30;;
13951;SDS011;39535;52.192;9.886;2023-05-10T09:05:32;1.00;;;1.00;;
13951;SDS011;39535;52.192;9.886;2023-05-10T09:07:59;1.50;;;1.20;;
13951;SDS011;39535;52.192;9.886;2023-05-10T09:10:26;1.20;;;1.10;;
13951;SDS011;39535;52.192;9.886;2023-05-10T09:12:54;0.80;;;0.80;;
13951;SDS011;39535;52.192;9.886;2023-05-10T09:15:22;1.10;;;1.10;;
13951;SDS011;39535;52.192;9.886;2023-05-10T09:17:49;0.87;;;0.60;;
13951;SDS011;39535;52.192;9.886;2023-05-10T09:20:15;0.70;;;0.70;;
13951;SDS011;39535;52.192;9.886;2023-05-10T09:22:43;0.60;;;0.60;;
13951;SDS011;39535;52.192;9.886;2023-05-10T09:25:10;0.40;;;0.40;;
13951;SDS011;39535;52.192;9.886;2023-05-10T09:27:39;0.40;;;0.40;;
13951;SDS011;39535;52.192;9.886;2023-05-10T09:30:07;0.50;;;0.50;;
13951;SDS011;39535;52.192;9.886;2023-05-10T09:32:37;0.50;;;0.50;;
13951;SDS011;39535;52.192;9.886;2023-05-10T09:35:08;0.60;;;0.60;;
13951;SDS011;39535;52.192;9.886;2023-05-10T09:37:35;0.70;;;0.70;;
13951;SDS011;39535;52.192;9.886;2023-05-10T09:40:03;0.97;;;0.97;;
13951;SDS011;39535;52.192;9.886;2023-05-10T09:42:31;0.80;;;0.80;;
13951;SDS011;39535;52.192;9.886;2023-05-10T09:45:01;0.73;;;0.60;;
13951;SDS011;39535;52.192;9.886;2023-05-10T09:47:28;0.73;;;0.73;;
13951;SDS011;39535;52.192;9.886;2023-05-10T09:49:55;0.93;;;0.93;;
13951;SDS011;39535;52.192;9.886;2023-05-10T09:52:28;1.10;;;0.80;;
13951;SDS011;39535;52.192;9.886;2023-05-10T09:54:54;0.80;;;0.80;;
13951;SDS011;39535;52.192;9.886;2023-05-10T09:57:21;1.23;;;0.90;;
13951;SDS011;39535;52.192;9.886;2023-05-10T09:59:48;2.13;;;1.33;;
13951;SDS011;39535;52.192;9.886;2023-05-10T10:02:17;1.60;;;1.10;;
13951;SDS011;39535;52.192;9.886;2023-05-10T10:04:43;1.13;;;1.13;;
13951;SDS011;39535;52.192;9.886;2023-05-10T10:07:09;1.27;;;1.17;;
13951;SDS011;39535;52.192;9.886;2023-05-10T10:09:36;1.40;;;1.30;;
13951;SDS011;39535;52.192;9.886;2023-05-10T10:12:02;1.20;;;1.20;;
13951;SDS011;39535;52.192;9.886;2023-05-10T10:14:29;1.70;;;1.13;;
13951;SDS011;39535;52.192;9.886;2023-05-10T10:16:56;1.47;;;1.20;;
13951;SDS011;39535;52.192;9.886;2023-05-10T10:19:24;1.50;;;1.40;;
13951;SDS011;39535;52.192;9.886;2023-05-10T10:21:50;1.10;;;1.10;;
13951;SDS011;39535;52.192;9.886;2023-05-10T10:24:16;1.20;;;1.20;;
13951;SDS011;39535;52.192;9.886;2023-05-10T10:26:43;1.40;;;1.30;;
13951;SDS011;39535;52.192;9.886;2023-05-10T10:29:15;1.33;;;1.33;;
13951;SDS011;39535;52.192;9.886;2023-05-10T10:31:48;2.00;;;1.90;;
13951;SDS011;39535;52.192;9.886;2023-05-10T10:34:24;1.80;;;1.70;;
13951;SDS011;39535;52.192;9.886;2023-05-10T10:36:52;2.10;;;2.00;;
13951;SDS011;39535;52.192;9.886;2023-05-10T10:39:20;2.10;;;2.00;;
13951;SDS011;39535;52.192;9.886;2023-05-10T10:41:50;1.97;;;1.87;;
13951;SDS011;39535;52.192;9.886;2023-05-10T10:44:34;2.00;;;1.90;;
13951;SDS011;39535;52.192;9.886;2023-05-10T10:47:07;4.43;;;2.50;;
13951;SDS011;39535;52.192;9.886;2023-05-10T10:50:02;2.60;;;2.40;;
13951;SDS011;39535;52.192;9.886;2023-05-10T10:52:38;2.60;;;2.40;;
13951;SDS011;39535;52.192;9.886;2023-05-10T10:55:05;2.73;;;2.53;;
13951;SDS011;39535;52.192;9.886;2023-05-10T10:57:35;3.00;;;2.80;;
13951;SDS011;39535;52.192;9.886;2023-05-10T11:00:19;2.70;;;2.50;;
13951;SDS011;39535;52.192;9.886;2023-05-10T11:02:47;2.60;;;2.40;;
13951;SDS011;39535;52.192;9.886;2023-05-10T11:08:15;3.10;;;2.77;;
13951;SDS011;39535;52.192;9.886;2023-05-10T11:10:52;3.00;;;2.67;;
13951;SDS011;39535;52.192;9.886;2023-05-10T11:13:28;2.93;;;2.70;;
13951;SDS011;39535;52.192;9.886;2023-05-10T11:15:56;2.93;;;2.73;;
13951;SDS011;39535;52.192;9.886;2023-05-10T11:18:24;3.00;;;2.70;;
13951;SDS011;39535;52.192;9.886;2023-05-10T11:20:55;2.20;;;2.10;;
13951;SDS011;39535;52.192;9.886;2023-05-10T11:23:23;3.00;;;2.80;;
13951;SDS011;39535;52.192;9.886;2023-05-10T11:25:50;3.07;;;2.87;;
13951;SDS011;39535;52.192;9.886;2023-05-10T11:28:16;2.53;;;2.33;;
13951;SDS011;39535;52.192;9.886;2023-05-10T11:30:44;2.70;;;2.50;;
13951;SDS011;39535;52.192;9.886;2023-05-10T11:33:14;2.20;;;2.10;;
13951;SDS011;39535;52.192;9.886;2023-05-10T11:35:49;2.60;;;2.40;;
13951;SDS011;39535;52.192;9.886;2023-05-10T11:38:22;3.60;;;2.87;;
13951;SDS011;39535;52.192;9.886;2023-05-10T11:40:49;2.70;;;2.50;;
13951;SDS011;39535;52.192;9.886;2023-05-10T11:43:18;3.17;;;2.13;;
13951;SDS011;39535;52.192;9.886;2023-05-10T11:45:44;4.53;;;2.70;;
13951;SDS011;39535;52.192;9.886;2023-05-10T11:48:11;5.03;;;3.00;;
13951;SDS011;39535;52.192;9.886;2023-05-10T11:50:37;2.80;;;2.60;;
13951;SDS011;39535;52.192;9.886;2023-05-10T11:53:05;2.43;;;2.33;;
13951;SDS011;39535;52.192;9.886;2023-05-10T11:55:33;2.80;;;2.47;;
13951;SDS011;39535;52.192;9.886;2023-05-10T11:58:00;2.60;;;2.40;;
13951;SDS011;39535;52.192;9.886;2023-05-10T12:00:27;2.60;;;2.30;;
13951;SDS011;39535;52.192;9.886;2023-05-10T12:02:54;3.07;;;2.77;;
13951;SDS011;39535;52.192;9.886;2023-05-10T12:05:20;3.20;;;2.43;;
13951;SDS011;39535;52.192;9.886;2023-05-10T12:07:47;2.33;;;2.10;;
13951;SDS011;39535;52.192;9.886;2023-05-10T12:10:15;2.53;;;2.30;;
13951;SDS011;39535;52.192;9.886;2023-05-10T12:12:43;2.47;;;2.33;;
13951;SDS011;39535;52.192;9.886;2023-05-10T12:15:11;3.43;;;2.40;;
13951;SDS011;39535;52.192;9.886;2023-05-10T12:17:38;4.17;;;2.20;;
13951;SDS011;39535;52.192;9.886;2023-05-10T12:20:18;1.90;;;1.70;;
13951;SDS011;39535;52.192;9.886;2023-05-10T12:22:49;2.10;;;1.80;;
13951;SDS011;39535;52.192;9.886;2023-05-10T12:25:19;2.13;;;1.73;;
13951;SDS011;39535;52.192;9.886;2023-05-10T12:27:48;2.13;;;1.93;;
13951;SDS011;39535;52.192;9.886;2023-05-10T12:30:21;1.90;;;1.80;;
13951;SDS011;39535;52.192;9.886;2023-05-10T12:32:48;2.00;;;1.70;;
13951;SDS011;39535;52.192;9.886;2023-05-10T12:35:15;3.87;;;3.40;;
13951;SDS011;39535;52.192;9.886;2023-05-10T12:37:42;3.20;;;3.00;;
13951;SDS011;39535;52.192;9.886;2023-05-10T12:40:09;3.33;;;3.03;;
13951;SDS011;39535;52.192;9.886;2023-05-10T12:42:38;2.80;;;2.60;;
13951;SDS011;39535;52.192;9.886;2023-05-10T12:45:06;2.63;;;2.43;;
13951;SDS011;39535;52.192;9.886;2023-05-10T12:47:34;3.40;;;3.03;;
13951;SDS011;39535;52.192;9.886;2023-05-10T12:50:01;2.80;;;2.60;;
13951;SDS011;39535;52.192;9.886;2023-05-10T12:52:29;2.13;;;2.03;;
13951;SDS011;39535;52.192;9.886;2023-05-10T12:54:57;2.77;;;2.10;;
13951;SDS011;39535;52.192;9.886;2023-05-10T12:57:23;2.40;;;2.20;;
13951;SDS011;39535;52.192;9.886;2023-05-10T12:59:51;1.93;;;1.83;;
13951;SDS011;39535;52.192;9.886;2023-05-10T13:02:17;2.43;;;1.90;;
13951;SDS011;39535;52.192;9.886;2023-05-10T13:04:45;2.03;;;1.80;;
13951;SDS011;39535;52.192;9.886;2023-05-10T13:07:12;1.60;;;1.50;;
13951;SDS011;39535;52.192;9.886;2023-05-10T13:09:38;1.90;;;1.80;;
13951;SDS011;39535;52.192;9.886;2023-05-10T13:12:05;2.87;;;2.27;;
13951;SDS011;39535;52.192;9.886;2023-05-10T13:14:31;1.90;;;1.80;;
13951;SDS011;39535;52.192;9.886;2023-05-10T13:16:59;2.27;;;2.03;;
13951;SDS011;39535;52.192;9.886;2023-05-10T13:19:25;2.80;;;1.90;;
13951;SDS011;39535;52.192;9.886;2023-05-10T13:21:52;1.50;;;1.40;;
13951;SDS011;39535;52.192;9.886;2023-05-10T13:24:18;1.77;;;1.50;;
13951;SDS011;39535;52.192;9.886;2023-05-10T13:26:44;1.70;;;1.53;;
13951;SDS011;39535;52.192;9.886;2023-05-10T13:29:11;1.50;;;1.40;;
13951;SDS011;39535;52.192;9.886;2023-05-10T13:31:37;1.40;;;1.30;;
13951;SDS011;39535;52.192;9.886;2023-05-10T13:34:05;2.10;;;1.47;;
13951;SDS011;39535;52.192;9.886;2023-05-10T13:36:31;1.60;;;1.50;;
13951;SDS011;39535;52.192;9.886;2023-05-10T13:38:57;1.47;;;1.37;;
13951;SDS011;39535;52.192;9.886;2023-05-10T13:41:26;5.50;;;2.13;;
13951;SDS011;39535;52.192;9.886;2023-05-10T13:43:52;1.70;;;1.53;;
13951;SDS011;39535;52.192;9.886;2023-05-10T13:46:18;1.37;;;1.27;;
13951;SDS011;39535;52.192;9.886;2023-05-10T13:48:45;1.57;;;1.37;;
13951;SDS011;39535;52.192;9.886;2023-05-10T13:51:12;1.90;;;1.60;;
13951;SDS011;39535;52.192;9.886;2023-05-10T13:53:39;1.20;;;1.20;;
13951;SDS011;39535;52.192;9.886;2023-05-10T13:56:05;1.30;;;1.20;;
13951;SDS011;39535;52.192;9.886;2023-05-10T13:58:32;1.80;;;1.63;;
13951;SDS011;39535;52.192;9.886;2023-05-10T14:00:58;2.50;;;1.60;;
13951;SDS011;39535;52.192;9.886;2023-05-10T14:03:24;2.40;;;1.40;;
13951;SDS011;39535;52.192;9.886;2023-05-10T14:05:51;1.67;;;1.53;;
13951;SDS011;39535;52.192;9.886;2023-05-10T14:08:18;2.33;;;1.30;;
13951;SDS011;39535;52.192;9.886;2023-05-10T14:10:45;1.50;;;1.40;;
13951;SDS011;39535;52.192;9.886;2023-05-10T14:13:11;1.40;;;1.30;;
13951;SDS011;39535;52.192;9.886;2023-05-10T14:15:38;1.60;;;1.50;;
13951;SDS011;39535;52.192;9.886;2023-05-10T14:18:04;1.40;;;1.13;;
13951;SDS011;39535;52.192;9.886;2023-05-10T14:20:30;1.57;;;1.40;;
13951;SDS011;39535;52.192;9.886;2023-05-10T14:22:58;1.80;;;1.60;;
13951;SDS011;39535;52.192;9.886;2023-05-10T14:25:26;1.73;;;1.63;;
13951;SDS011;39535;52.192;9.886;2023-05-10T14:27:53;1.80;;;1.63;;
13951;SDS011;39535;52.192;9.886;2023-05-10T14:30:19;1.60;;;1.50;;
13951;SDS011;39535;52.192;9.886;2023-05-10T14:32:46;2.03;;;1.90;;
13951;SDS011;39535;52.192;9.886;2023-05-10T14:35:12;1.70;;;1.60;;
13951;SDS011;39535;52.192;9.886;2023-05-10T14:37:38;2.07;;;1.93;;
13951;SDS011;39535;52.192;9.886;2023-05-10T14:40:07;1.67;;;1.57;;
13951;SDS011;39535;52.192;9.886;2023-05-10T14:42:36;1.60;;;1.50;;
13951;SDS011;39535;52.192;9.886;2023-05-10T14:45:02;2.33;;;2.00;;
13951;SDS011;39535;52.192;9.886;2023-05-10T14:47:29;1.87;;;1.77;;
13951;SDS011;39535;52.192;9.886;2023-05-10T14:49:55;2.20;;;2.00;;
13951;SDS011;39535;52.192;9.886;2023-05-10T14:52:23;1.90;;;1.80;;
13951;SDS011;39535;52.192;9.886;2023-05-10T14:54:49;2.20;;;2.10;;
13951;SDS011;39535;52.192;9.886;2023-05-10T14:57:17;2.00;;;1.90;;
13951;SDS011;39535;52.192;9.886;2023-05-10T14:59:45;2.40;;;2.20;;
13951;SDS011;39535;52.192;9.886;2023-05-10T15:02:11;1.87;;;1.77;;